sensor_id;sensor_type;location;lat;lon;timestamp;P1;durP1;ratioP1;P2;durP2;ratioP2
9115;SDS011;4593;53.652;10.168;2023-11-19T00:00:15;7.37;;;4.63;;
9115;SDS011;4593;53.652;10.168;2023-11-19T00:02:41;7.13;;;4.97;;
9115;SDS011;4593;53.652;10.168;2023-11-19T00:05:07;4.67;;;4.23;;
9115;SDS011;4593;53.652;10.168;2023-11-19T00:07:34;5.80;;;4.47;;
9115;SDS011;4593;53.652;10.168;2023-11-19T00:10:01;5.17;;;4.23;;
9115;SDS011;4593;53.652;10.168;2023-11-19T00:12:31;6.70;;;3.87;;
9115;SDS011;4593;53.652;10.168;2023-11-19T00:14:57;6.37;;;4.33;;
9115;SDS011;4593;53.652;10.168;2023-11-19T00:17:23;4.17;;;3.50;;
9115;SDS011;4593;53.652;10.168;2023-11-19T00:19:49;7.83;;;4.47;;
9115;SDS011;4593;53.652;10.168;2023-11-19T00:22:16;4.77;;;3.83;;
9115;SDS011;4593;53.652;10.168;2023-11-19T00:24:42;4.63;;;3.40;;
9115;SDS011;4593;53.652;10.168;2023-11-19T00:27:08;3.77;;;3.40;;
9115;SDS011;4593;53.652;10.168;2023-11-19T00:29:33;4.40;;;3.77;;
9115;SDS011;4593;53.652;10.168;2023-11-19T00:31:59;3.83;;;3.33;;
9115;SDS011;4593;53.652;10.168;2023-11-19T00:34:25;4.43;;;3.43;;
9115;SDS011;4593;53.652;10.168;2023-11-19T00:36:50;4.37;;;2.90;;
9115;SDS011;4593;53.652;10.168;2023-11-19T00:39:16;3.60;;;3.30;;
9115;SDS011;4593;53.652;10.168;2023-11-19T00:41:43;2.97;;;2.50;;
9115;SDS011;4593;53.652;10.168;2023-11-19T00:44:08;4.67;;;3.07;;
9115;SDS011;4593;53.652;10.168;2023-11-19T00:46:34;3.97;;;3.57;;
9115;SDS011;4593;53.652;10.168;2023-11-19T00:49:00;4.10;;;2.97;;
9115;SDS011;4593;53.652;10.168;2023-11-19T00:51:26;3.23;;;2.93;;
9115;SDS011;4593;53.652;10.168;2023-11-19T00:53:51;3.83;;;2.60;;
9115;SDS011;4593;53.652;10.168;2023-11-19T00:56:20;2.77;;;2.57;;
9115;SDS011;4593;53.652;10.168;2023-11-19T00:58:46;3.00;;;2.80;;
9115;SDS011;4593;53.652;10.168;2023-11-19T01:01:12;3.10;;;2.60;;
9115;SDS011;4593;53.652;10.168;2023-11-19T01:03:38;3.43;;;3.13;;
9115;SDS011;4593;53.652;10.168;2023-11-19T01:06:04;2.53;;;2.33;;
9115;SDS011;4593;53.652;10.168;2023-11-19T01:08:30;2.60;;;2.40;;
9115;SDS011;4593;53.652;10.168;2023-11-19T01:10:55;3.57;;;2.63;;
9115;SDS011;4593;53.652;10.168;2023-11-19T01:13:21;2.70;;;2.43;;
9115;SDS011;4593;53.652;10.168;2023-11-19T01:15:47;3.93;;;2.20;;
9115;SDS011;4593;53.652;10.168;2023-11-19T01:18:13;2.53;;;2.30;;
9115;SDS011;4593;53.652;10.168;2023-11-19T01:20:38;2.60;;;2.40;;
9115;SDS011;4593;53.652;10.168;2023-11-19T01:23:04;2.53;;;2.33;;
9115;SDS011;4593;53.652;10.168;2023-11-19T01:25:30;2.73;;;2.53;;
9115;SDS011;4593;53.652;10.168;2023-11-19T01:27:56;2.53;;;2.33;;
9115;SDS011;4593;53.652;10.168;2023-11-19T01:30:24;2.53;;;2.33;;
9115;SDS011;4593;53.652;10.168;2023-11-19T01:32:50;2.17;;;2.07;;
9115;SDS011;4593;53.652;10.168;2023-11-19T01:35:16;2.47;;;2.27;;
9115;SDS011;4593;53.652;10.168;2023-11-19T01:37:41;2.30;;;2.10;;
9115;SDS011;4593;53.652;10.168;2023-11-19T01:40:07;2.17;;;2.07;;
9115;SDS011;4593;53.652;10.168;2023-11-19T01:42:39;2.20;;;2.03;;
9115;SDS011;4593;53.652;10.168;2023-11-19T01:45:06;2.30;;;2.10;;
9115;SDS011;4593;53.652;10.168;2023-11-19T01:47:35;2.27;;;2.10;;
9115;SDS011;4593;53.652;10.168;2023-11-19T01:50:02;2.00;;;1.90;;
9115;SDS011;4593;53.652;10.168;2023-11-19T01:52:32;2.40;;;2.20;;
9115;SDS011;4593;53.652;10.168;2023-11-19T01:55:01;1.90;;;1.80;;
9115;SDS011;4593;53.652;10.168;2023-11-19T01:57:28;2.13;;;2.03;;
9115;SDS011;4593;53.652;10.168;2023-11-19T01:59:53;2.50;;;2.37;;
9115;SDS011;4593;53.652;10.168;2023-11-19T02:02:19;2.00;;;1.90;;
9115;SDS011;4593;53.652;10.168;2023-11-19T02:04:46;2.40;;;2.20;;
9115;SDS011;4593;53.652;10.168;2023-11-19T02:07:13;2.00;;;1.90;;
9115;SDS011;4593;53.652;10.168;2023-11-19T02:09:42;1.87;;;1.77;;
9115;SDS011;4593;53.652;10.168;2023-11-19T02:12:08;1.90;;;1.80;;
9115;SDS011;4593;53.652;10.168;2023-11-19T02:14:36;2.10;;;2.00;;
9115;SDS011;4593;53.652;10.168;2023-11-19T02:17:02;2.07;;;1.97;;
9115;SDS011;4593;53.652;10.168;2023-11-19T02:19:28;2.30;;;2.10;;
9115;SDS011;4593;53.652;10.168;2023-11-19T02:21:54;1.80;;;1.70;;
9115;SDS011;4593;53.652;10.168;2023-11-19T02:24:21;2.20;;;2.00;;
9115;SDS011;4593;53.652;10.168;2023-11-19T02:29:16;2.23;;;2.07;;
9115;SDS011;4593;53.652;10.168;2023-11-19T02:31:42;1.83;;;1.73;;
9115;SDS011;4593;53.652;10.168;2023-11-19T02:34:09;1.90;;;1.80;;
9115;SDS011;4593;53.652;10.168;2023-11-19T02:36:37;1.87;;;1.77;;
9115;SDS011;4593;53.652;10.168;2023-11-19T02:39:03;2.23;;;2.13;;
9115;SDS011;4593;53.652;10.168;2023-11-19T02:41:29;1.77;;;1.67;;
9115;SDS011;4593;53.652;10.168;2023-11-19T02:43:55;2.60;;;1.70;;
9115;SDS011;4593;53.652;10.168;2023-11-19T02:46:20;1.80;;;1.70;;
9115;SDS011;4593;53.652;10.168;2023-11-19T02:48:46;1.80;;;1.70;;
9115;SDS011;4593;53.652;10.168;2023-11-19T02:51:12;1.90;;;1.80;;
9115;SDS011;4593;53.652;10.168;2023-11-19T02:53:37;1.80;;;1.70;;
9115;SDS011;4593;53.652;10.168;2023-11-19T02:56:04;1.80;;;1.70;;
9115;SDS011;4593;53.652;10.168;2023-11-19T02:58:45;1.80;;;1.70;;
9115;SDS011;4593;53.652;10.168;2023-11-19T03:01:11;1.87;;;1.77;;
9115;SDS011;4593;53.652;10.168;2023-11-19T03:03:49;1.90;;;1.80;;
9115;SDS011;4593;53.652;10.168;2023-11-19T03:06:19;1.83;;;1.73;;
9115;SDS011;4593;53.652;10.168;2023-11-19T03:08:46;1.80;;;1.70;;
9115;SDS011;4593;53.652;10.168;2023-11-19T03:11:13;1.83;;;1.73;;
9115;SDS011;4593;53.652;10.168;2023-11-19T03:13:38;1.97;;;1.87;;
9115;SDS011;4593;53.652;10.168;2023-11-19T03:16:04;2.00;;;1.90;;
9115;SDS011;4593;53.652;10.168;2023-11-19T03:18:30;2.10;;;2.00;;
9115;SDS011;4593;53.652;10.168;2023-11-19T03:20:56;2.00;;;1.90;;
9115;SDS011;4593;53.652;10.168;2023-11-19T03:23:23;2.00;;;1.90;;
9115;SDS011;4593;53.652;10.168;2023-11-19T03:25:49;2.00;;;1.90;;
9115;SDS011;4593;53.652;10.168;2023-11-19T03:28:15;2.03;;;1.90;;
9115;SDS011;4593;53.652;10.168;2023-11-19T03:30:40;2.00;;;1.90;;
9115;SDS011;4593;53.652;10.168;2023-11-19T03:33:06;1.83;;;1.73;;
9115;SDS011;4593;53.652;10.168;2023-11-19T03:35:32;2.10;;;2.00;;
9115;SDS011;4593;53.652;10.168;2023-11-19T03:37:58;1.97;;;1.87;;
9115;SDS011;4593;53.652;10.168;2023-11-19T03:40:23;2.07;;;1.97;;
9115;SDS011;4593;53.652;10.168;2023-11-19T03:42:50;2.10;;;2.00;;
9115;SDS011;4593;53.652;10.168;2023-11-19T03:45:16;1.80;;;1.70;;
9115;SDS011;4593;53.652;10.168;2023-11-19T03:47:41;2.10;;;2.00;;
9115;SDS011;4593;53.652;10.168;2023-11-19T03:50:07;2.30;;;2.10;;
9115;SDS011;4593;53.652;10.168;2023-11-19T03:52:34;2.13;;;2.03;;
9115;SDS011;4593;53.652;10.168;2023-11-19T03:55:00;2.20;;;2.00;;
9115;SDS011;4593;53.652;10.168;2023-11-19T03:57:26;2.50;;;2.30;;
9115;SDS011;4593;53.652;10.168;2023-11-19T03:59:53;2.70;;;2.50;;
9115;SDS011;4593;53.652;10.168;2023-11-19T04:02:18;2.20;;;2.00;;
9115;SDS011;4593;53.652;10.168;2023-11-19T04:04:44;2.20;;;2.03;;
9115;SDS011;4593;53.652;10.168;2023-11-19T04:07:09;2.30;;;2.10;;
9115;SDS011;4593;53.652;10.168;2023-11-19T04:09:35;2.77;;;2.10;;
9115;SDS011;4593;53.652;10.168;2023-11-19T04:12:02;2.83;;;2.30;;
9115;SDS011;4593;53.652;10.168;2023-11-19T04:14:28;2.37;;;2.17;;
9115;SDS011;4593;53.652;10.168;2023-11-19T04:16:54;2.40;;;2.20;;
9115;SDS011;4593;53.652;10.168;2023-11-19T04:19:20;2.33;;;2.17;;
9115;SDS011;4593;53.652;10.168;2023-11-19T04:21:46;5.37;;;2.00;;
9115;SDS011;4593;53.652;10.168;2023-11-19T04:24:12;2.53;;;2.33;;
9115;SDS011;4593;53.652;10.168;2023-11-19T04:26:41;2.37;;;2.23;;
9115;SDS011;4593;53.652;10.168;2023-11-19T04:29:14;2.67;;;2.47;;
9115;SDS011;4593;53.652;10.168;2023-11-19T04:31:42;3.77;;;2.50;;
9115;SDS011;4593;53.652;10.168;2023-11-19T04:34:09;2.53;;;2.33;;
9115;SDS011;4593;53.652;10.168;2023-11-19T04:36:36;3.00;;;2.70;;
9115;SDS011;4593;53.652;10.168;2023-11-19T04:39:02;2.77;;;2.57;;
9115;SDS011;4593;53.652;10.168;2023-11-19T04:41:47;3.20;;;2.73;;
9115;SDS011;4593;53.652;10.168;2023-11-19T04:44:14;2.37;;;2.17;;
9115;SDS011;4593;53.652;10.168;2023-11-19T04:46:41;2.87;;;2.57;;
9115;SDS011;4593;53.652;10.168;2023-11-19T04:49:09;3.10;;;2.80;;
9115;SDS011;4593;53.652;10.168;2023-11-19T04:51:42;3.17;;;2.73;;
9115;SDS011;4593;53.652;10.168;2023-11-19T04:54:09;2.70;;;2.50;;
9115;SDS011;4593;53.652;10.168;2023-11-19T04:56:35;4.37;;;2.73;;
9115;SDS011;4593;53.652;10.168;2023-11-19T04:59:02;3.33;;;3.03;;
9115;SDS011;4593;53.652;10.168;2023-11-19T05:01:28;3.27;;;2.97;;
9115;SDS011;4593;53.652;10.168;2023-11-19T05:03:56;4.70;;;3.67;;
9115;SDS011;4593;53.652;10.168;2023-11-19T05:06:25;4.77;;;2.70;;
9115;SDS011;4593;53.652;10.168;2023-11-19T05:08:54;4.63;;;2.97;;
9115;SDS011;4593;53.652;10.168;2023-11-19T05:11:20;3.53;;;3.00;;
9115;SDS011;4593;53.652;10.168;2023-11-19T05:13:46;3.97;;;3.57;;
9115;SDS011;4593;53.652;10.168;2023-11-19T05:16:12;5.63;;;3.80;;
9115;SDS011;4593;53.652;10.168;2023-11-19T05:18:39;5.17;;;4.20;;
9115;SDS011;4593;53.652;10.168;2023-11-19T05:21:05;4.50;;;3.10;;
9115;SDS011;4593;53.652;10.168;2023-11-19T05:23:32;3.90;;;3.37;;
9115;SDS011;4593;53.652;10.168;2023-11-19T05:25:59;4.07;;;3.67;;
9115;SDS011;4593;53.652;10.168;2023-11-19T05:28:28;5.57;;;3.70;;
9115;SDS011;4593;53.652;10.168;2023-11-19T05:30:54;4.30;;;3.50;;
9115;SDS011;4593;53.652;10.168;2023-11-19T05:33:20;5.03;;;3.83;;
9115;SDS011;4593;53.652;10.168;2023-11-19T05:35:46;5.13;;;4.37;;
9115;SDS011;4593;53.652;10.168;2023-11-19T05:38:11;6.20;;;4.93;;
9115;SDS011;4593;53.652;10.168;2023-11-19T05:40:37;5.73;;;4.27;;
9115;SDS011;4593;53.652;10.168;2023-11-19T05:43:03;6.97;;;4.43;;
9115;SDS011;4593;53.652;10.168;2023-11-19T05:45:30;5.93;;;4.50;;
9115;SDS011;4593;53.652;10.168;2023-11-19T05:47:57;8.57;;;5.57;;
9115;SDS011;4593;53.652;10.168;2023-11-19T05:50:22;6.53;;;5.07;;
9115;SDS011;4593;53.652;10.168;2023-11-19T05:52:48;8.53;;;5.73;;
9115;SDS011;4593;53.652;10.168;2023-11-19T05:55:14;8.00;;;5.23;;
9115;SDS011;4593;53.652;10.168;2023-11-19T05:57:40;7.47;;;4.93;;
9115;SDS011;4593;53.652;10.168;2023-11-19T06:00:06;5.60;;;5.07;;
9115;SDS011;4593;53.652;10.168;2023-11-19T06:02:33;11.40;;;6.03;;
9115;SDS011;4593;53.652;10.168;2023-11-19T06:04:59;6.70;;;5.27;;
9115;SDS011;4593;53.652;10.168;2023-11-19T06:07:26;6.60;;;4.73;;
9115;SDS011;4593;53.652;10.168;2023-11-19T06:09:52;6.30;;;4.83;;
9115;SDS011;4593;53.652;10.168;2023-11-19T06:12:17;9.03;;;6.03;;
9115;SDS011;4593;53.652;10.168;2023-11-19T06:14:43;7.07;;;4.80;;
9115;SDS011;4593;53.652;10.168;2023-11-19T06:17:08;8.17;;;5.30;;
9115;SDS011;4593;53.652;10.168;2023-11-19T06:19:36;9.60;;;6.10;;
9115;SDS011;4593;53.652;10.168;2023-11-19T06:22:03;6.27;;;4.53;;
9115;SDS011;4593;53.652;10.168;2023-11-19T06:24:28;9.73;;;6.33;;
9115;SDS011;4593;53.652;10.168;2023-11-19T06:26:54;10.97;;;6.40;;
9115;SDS011;4593;53.652;10.168;2023-11-19T06:29:20;7.87;;;5.17;;
9115;SDS011;4593;53.652;10.168;2023-11-19T06:31:45;6.67;;;4.87;;
9115;SDS011;4593;53.652;10.168;2023-11-19T06:34:14;6.37;;;4.83;;
9115;SDS011;4593;53.652;10.168;2023-11-19T06:36:40;11.33;;;5.47;;
9115;SDS011;4593;53.652;10.168;2023-11-19T06:39:07;6.50;;;4.70;;
9115;SDS011;4593;53.652;10.168;2023-11-19T06:41:33;5.93;;;4.97;;
9115;SDS011;4593;53.652;10.168;2023-11-19T06:43:59;7.80;;;5.17;;
9115;SDS011;4593;53.652;10.168;2023-11-19T06:46:24;8.20;;;5.10;;
9115;SDS011;4593;53.652;10.168;2023-11-19T06:48:50;6.70;;;4.53;;
9115;SDS011;4593;53.652;10.168;2023-11-19T06:51:16;6.17;;;4.53;;
9115;SDS011;4593;53.652;10.168;2023-11-19T06:53:45;12.53;;;5.73;;
9115;SDS011;4593;53.652;10.168;2023-11-19T06:56:23;5.10;;;4.40;;
9115;SDS011;4593;53.652;10.168;2023-11-19T06:58:49;7.00;;;4.83;;
9115;SDS011;4593;53.652;10.168;2023-11-19T07:01:16;9.10;;;5.13;;
9115;SDS011;4593;53.652;10.168;2023-11-19T07:03:43;10.97;;;5.20;;
9115;SDS011;4593;53.652;10.168;2023-11-19T07:06:12;5.73;;;4.50;;
9115;SDS011;4593;53.652;10.168;2023-11-19T07:08:38;10.63;;;6.37;;
9115;SDS011;4593;53.652;10.168;2023-11-19T07:11:06;14.30;;;6.07;;
9115;SDS011;4593;53.652;10.168;2023-11-19T07:13:31;11.43;;;5.30;;
9115;SDS011;4593;53.652;10.168;2023-11-19T07:15:57;14.30;;;5.53;;
9115;SDS011;4593;53.652;10.168;2023-11-19T07:18:23;10.07;;;4.77;;
9115;SDS011;4593;53.652;10.168;2023-11-19T07:20:49;12.47;;;5.10;;
9115;SDS011;4593;53.652;10.168;2023-11-19T07:23:15;14.80;;;4.70;;
9115;SDS011;4593;53.652;10.168;2023-11-19T07:25:42;7.50;;;3.80;;
9115;SDS011;4593;53.652;10.168;2023-11-19T07:28:11;13.30;;;4.87;;
9115;SDS011;4593;53.652;10.168;2023-11-19T07:30:37;8.93;;;4.90;;
9115;SDS011;4593;53.652;10.168;2023-11-19T07:33:03;8.30;;;5.30;;
9115;SDS011;4593;53.652;10.168;2023-11-19T07:35:29;9.73;;;4.13;;
9115;SDS011;4593;53.652;10.168;2023-11-19T07:37:56;7.93;;;4.27;;
9115;SDS011;4593;53.652;10.168;2023-11-19T07:40:22;11.60;;;3.83;;
9115;SDS011;4593;53.652;10.168;2023-11-19T07:42:48;16.30;;;4.40;;
9115;SDS011;4593;53.652;10.168;2023-11-19T07:45:14;17.47;;;4.03;;
9115;SDS011;4593;53.652;10.168;2023-11-19T07:47:40;4.27;;;3.20;;
9115;SDS011;4593;53.652;10.168;2023-11-19T07:50:06;15.30;;;4.30;;
9115;SDS011;4593;53.652;10.168;2023-11-19T07:52:32;11.63;;;3.90;;
9115;SDS011;4593;53.652;10.168;2023-11-19T07:54:58;11.23;;;3.67;;
9115;SDS011;4593;53.652;10.168;2023-11-19T07:57:23;20.80;;;3.60;;
9115;SDS011;4593;53.652;10.168;2023-11-19T07:59:49;21.03;;;3.63;;
9115;SDS011;4593;53.652;10.168;2023-11-19T08:02:15;9.70;;;2.80;;
9115;SDS011;4593;53.652;10.168;2023-11-19T08:04:40;23.83;;;3.57;;
9115;SDS011;4593;53.652;10.168;2023-11-19T08:07:10;16.50;;;3.23;;
9115;SDS011;4593;53.652;10.168;2023-11-19T08:09:36;15.37;;;3.67;;
9115;SDS011;4593;53.652;10.168;2023-11-19T08:12:02;12.73;;;3.47;;
9115;SDS011;4593;53.652;10.168;2023-11-19T08:14:28;10.17;;;3.93;;
9115;SDS011;4593;53.652;10.168;2023-11-19T08:16:54;16.27;;;3.17;;
9115;SDS011;4593;53.652;10.168;2023-11-19T08:19:20;16.63;;;3.60;;
9115;SDS011;4593;53.652;10.168;2023-11-19T08:21:45;20.27;;;3.43;;
9115;SDS011;4593;53.652;10.168;2023-11-19T08:24:11;14.33;;;3.20;;
9115;SDS011;4593;53.652;10.168;2023-11-19T08:26:37;27.23;;;4.33;;
9115;SDS011;4593;53.652;10.168;2023-11-19T08:29:02;12.83;;;3.17;;
9115;SDS011;4593;53.652;10.168;2023-11-19T08:31:28;7.50;;;3.07;;
9115;SDS011;4593;53.652;10.168;2023-11-19T08:33:54;10.10;;;3.40;;
9115;SDS011;4593;53.652;10.168;2023-11-19T08:36:19;16.30;;;3.43;;
9115;SDS011;4593;53.652;10.168;2023-11-19T08:38:45;6.13;;;2.80;;
9115;SDS011;4593;53.652;10.168;2023-11-19T08:41:11;13.43;;;3.43;;
9115;SDS011;4593;53.652;10.168;2023-11-19T08:43:37;11.60;;;3.37;;
9115;SDS011;4593;53.652;10.168;2023-11-19T08:46:04;14.60;;;3.67;;
9115;SDS011;4593;53.652;10.168;2023-11-19T08:48:35;23.87;;;3.33;;
9115;SDS011;4593;53.652;10.168;2023-11-19T08:51:00;14.10;;;4.00;;
9115;SDS011;4593;53.652;10.168;2023-11-19T08:53:26;14.53;;;3.60;;
9115;SDS011;4593;53.652;10.168;2023-11-19T08:55:52;18.60;;;4.33;;
9115;SDS011;4593;53.652;10.168;2023-11-19T08:58:17;14.07;;;3.83;;
9115;SDS011;4593;53.652;10.168;2023-11-19T09:00:43;21.53;;;3.87;;
9115;SDS011;4593;53.652;10.168;2023-11-19T09:03:09;6.73;;;2.90;;
9115;SDS011;4593;53.652;10.168;2023-11-19T09:05:34;25.10;;;3.77;;
9115;SDS011;4593;53.652;10.168;2023-11-19T09:08:00;11.57;;;3.13;;
9115;SDS011;4593;53.652;10.168;2023-11-19T09:10:26;15.63;;;3.63;;
9115;SDS011;4593;53.652;10.168;2023-11-19T09:12:52;13.47;;;3.50;;
9115;SDS011;4593;53.652;10.168;2023-11-19T09:15:18;26.57;;;4.33;;
9115;SDS011;4593;53.652;10.168;2023-11-19T09:17:43;14.03;;;2.90;;
9115;SDS011;4593;53.652;10.168;2023-11-19T09:20:10;11.97;;;3.60;;
9115;SDS011;4593;53.652;10.168;2023-11-19T09:22:39;30.10;;;4.17;;
9115;SDS011;4593;53.652;10.168;2023-11-19T09:25:05;15.57;;;3.87;;
9115;SDS011;4593;53.652;10.168;2023-11-19T09:27:31;25.40;;;4.27;;
9115;SDS011;4593;53.652;10.168;2023-11-19T09:29:57;15.93;;;3.27;;
9115;SDS011;4593;53.652;10.168;2023-11-19T09:32:23;23.27;;;3.77;;
9115;SDS011;4593;53.652;10.168;2023-11-19T09:34:50;17.83;;;4.17;;
9115;SDS011;4593;53.652;10.168;2023-11-19T09:37:15;23.27;;;4.00;;
9115;SDS011;4593;53.652;10.168;2023-11-19T09:39:41;17.87;;;3.80;;
9115;SDS011;4593;53.652;10.168;2023-11-19T09:42:10;10.70;;;3.90;;
9115;SDS011;4593;53.652;10.168;2023-11-19T09:44:37;20.37;;;3.57;;
9115;SDS011;4593;53.652;10.168;2023-11-19T09:47:04;30.60;;;4.53;;
9115;SDS011;4593;53.652;10.168;2023-11-19T09:49:30;18.60;;;3.63;;
9115;SDS011;4593;53.652;10.168;2023-11-19T09:51:56;39.90;;;4.53;;
9115;SDS011;4593;53.652;10.168;2023-11-19T09:54:22;29.60;;;3.90;;
9115;SDS011;4593;53.652;10.168;2023-11-19T09:56:48;16.73;;;4.07;;
9115;SDS011;4593;53.652;10.168;2023-11-19T09:59:14;12.20;;;3.50;;
9115;SDS011;4593;53.652;10.168;2023-11-19T10:01:41;31.33;;;4.10;;
9115;SDS011;4593;53.652;10.168;2023-11-19T10:04:07;25.87;;;4.10;;
9115;SDS011;4593;53.652;10.168;2023-11-19T10:06:34;21.43;;;4.00;;
9115;SDS011;4593;53.652;10.168;2023-11-19T10:09:00;23.13;;;4.10;;
9115;SDS011;4593;53.652;10.168;2023-11-19T10:11:26;26.23;;;3.83;;
9115;SDS011;4593;53.652;10.168;2023-11-19T10:13:53;17.50;;;4.03;;
9115;SDS011;4593;53.652;10.168;2023-11-19T10:16:19;15.63;;;4.30;;
9115;SDS011;4593;53.652;10.168;2023-11-19T10:18:46;20.67;;;4.10;;
9115;SDS011;4593;53.652;10.168;2023-11-19T10:21:13;25.67;;;3.70;;
9115;SDS011;4593;53.652;10.168;2023-11-19T10:26:25;28.23;;;4.13;;
9115;SDS011;4593;53.652;10.168;2023-11-19T10:28:51;17.60;;;3.40;;
9115;SDS011;4593;53.652;10.168;2023-11-19T10:31:18;13.90;;;4.03;;
9115;SDS011;4593;53.652;10.168;2023-11-19T10:33:49;28.37;;;4.07;;
9115;SDS011;4593;53.652;10.168;2023-11-19T10:36:15;17.50;;;4.23;;
9115;SDS011;4593;53.652;10.168;2023-11-19T10:38:51;18.27;;;4.60;;
9115;SDS011;4593;53.652;10.168;2023-11-19T10:41:29;23.37;;;4.60;;
9115;SDS011;4593;53.652;10.168;2023-11-19T10:43:56;14.67;;;2.60;;
9115;SDS011;4593;53.652;10.168;2023-11-19T10:46:22;10.97;;;3.77;;
9115;SDS011;4593;53.652;10.168;2023-11-19T10:48:48;29.20;;;5.40;;
9115;SDS011;4593;53.652;10.168;2023-11-19T10:51:18;26.43;;;4.33;;
9115;SDS011;4593;53.652;10.168;2023-11-19T10:53:48;21.43;;;3.87;;
9115;SDS011;4593;53.652;10.168;2023-11-19T10:56:17;8.63;;;3.20;;
9115;SDS011;4593;53.652;10.168;2023-11-19T10:58:49;22.97;;;3.90;;
9115;SDS011;4593;53.652;10.168;2023-11-19T11:01:21;25.53;;;4.20;;
9115;SDS011;4593;53.652;10.168;2023-11-19T11:03:51;18.67;;;3.93;;
9115;SDS011;4593;53.652;10.168;2023-11-19T11:06:19;17.13;;;3.80;;
9115;SDS011;4593;53.652;10.168;2023-11-19T11:08:47;30.30;;;4.60;;
9115;SDS011;4593;53.652;10.168;2023-11-19T11:11:14;12.50;;;3.33;;
9115;SDS011;4593;53.652;10.168;2023-11-19T11:13:46;18.90;;;3.87;;
9115;SDS011;4593;53.652;10.168;2023-11-19T11:16:14;18.57;;;3.37;;
9115;SDS011;4593;53.652;10.168;2023-11-19T11:18:43;13.60;;;3.17;;
9115;SDS011;4593;53.652;10.168;2023-11-19T11:21:14;11.17;;;4.03;;
9115;SDS011;4593;53.652;10.168;2023-11-19T11:40:15;16.70;;;4.10;;
9115;SDS011;4593;53.652;10.168;2023-11-19T11:42:43;19.50;;;4.10;;
9115;SDS011;4593;53.652;10.168;2023-11-19T11:45:13;11.27;;;3.53;;
9115;SDS011;4593;53.652;10.168;2023-11-19T11:50:15;20.53;;;4.27;;
9115;SDS011;4593;53.652;10.168;2023-11-19T11:57:49;18.87;;;4.70;;
9115;SDS011;4593;53.652;10.168;2023-11-19T12:00:22;16.47;;;4.03;;
9115;SDS011;4593;53.652;10.168;2023-11-19T12:02:52;17.00;;;4.03;;
9115;SDS011;4593;53.652;10.168;2023-11-19T12:05:19;13.17;;;3.30;;
9115;SDS011;4593;53.652;10.168;2023-11-19T12:07:54;17.80;;;4.13;;
9115;SDS011;4593;53.652;10.168;2023-11-19T12:10:20;18.03;;;3.43;;
9115;SDS011;4593;53.652;10.168;2023-11-19T12:12:47;15.03;;;3.87;;
9115;SDS011;4593;53.652;10.168;2023-11-19T12:15:13;17.23;;;3.20;;
9115;SDS011;4593;53.652;10.168;2023-11-19T12:17:46;13.70;;;3.67;;
9115;SDS011;4593;53.652;10.168;2023-11-19T12:20:14;19.60;;;3.80;;
9115;SDS011;4593;53.652;10.168;2023-11-19T12:22:42;11.03;;;3.60;;
9115;SDS011;4593;53.652;10.168;2023-11-19T12:25:12;17.67;;;3.23;;
9115;SDS011;4593;53.652;10.168;2023-11-19T12:27:50;5.73;;;2.50;;
9115;SDS011;4593;53.652;10.168;2023-11-19T12:30:24;16.93;;;3.17;;
9115;SDS011;4593;53.652;10.168;2023-11-19T12:32:50;11.00;;;3.40;;
9115;SDS011;4593;53.652;10.168;2023-11-19T12:35:18;17.13;;;3.87;;
9115;SDS011;4593;53.652;10.168;2023-11-19T12:37:46;22.03;;;4.43;;
9115;SDS011;4593;53.652;10.168;2023-11-19T12:40:19;17.33;;;3.87;;
9115;SDS011;4593;53.652;10.168;2023-11-19T12:42:47;16.43;;;3.73;;
9115;SDS011;4593;53.652;10.168;2023-11-19T12:45:16;11.43;;;3.67;;
9115;SDS011;4593;53.652;10.168;2023-11-19T12:47:43;9.07;;;3.37;;
9115;SDS011;4593;53.652;10.168;2023-11-19T12:50:09;16.70;;;3.77;;
9115;SDS011;4593;53.652;10.168;2023-11-19T12:52:36;13.63;;;4.30;;
9115;SDS011;4593;53.652;10.168;2023-11-19T12:55:03;12.30;;;4.03;;
9115;SDS011;4593;53.652;10.168;2023-11-19T12:57:47;16.60;;;3.57;;
9115;SDS011;4593;53.652;10.168;2023-11-19T13:00:19;18.53;;;3.83;;
9115;SDS011;4593;53.652;10.168;2023-11-19T13:02:47;17.37;;;3.67;;
9115;SDS011;4593;53.652;10.168;2023-11-19T13:08:04;14.37;;;3.13;;
9115;SDS011;4593;53.652;10.168;2023-11-19T13:10:34;14.33;;;3.73;;
9115;SDS011;4593;53.652;10.168;2023-11-19T13:13:16;15.67;;;3.20;;
9115;SDS011;4593;53.652;10.168;2023-11-19T13:15:42;10.23;;;3.13;;
9115;SDS011;4593;53.652;10.168;2023-11-19T13:18:10;16.20;;;3.63;;
9115;SDS011;4593;53.652;10.168;2023-11-19T13:20:36;10.17;;;2.70;;
9115;SDS011;4593;53.652;10.168;2023-11-19T13:23:02;14.73;;;3.60;;
9115;SDS011;4593;53.652;10.168;2023-11-19T13:25:29;22.90;;;3.53;;
9115;SDS011;4593;53.652;10.168;2023-11-19T13:27:56;13.93;;;3.63;;
9115;SDS011;4593;53.652;10.168;2023-11-19T13:30:22;9.90;;;2.83;;
9115;SDS011;4593;53.652;10.168;2023-11-19T13:32:49;15.87;;;3.17;;
9115;SDS011;4593;53.652;10.168;2023-11-19T13:35:20;15.97;;;3.50;;
9115;SDS011;4593;53.652;10.168;2023-11-19T13:37:47;19.53;;;3.57;;
9115;SDS011;4593;53.652;10.168;2023-11-19T13:40:13;13.20;;;3.30;;
9115;SDS011;4593;53.652;10.168;2023-11-19T13:42:43;13.47;;;3.80;;
9115;SDS011;4593;53.652;10.168;2023-11-19T13:45:12;22.43;;;4.17;;
9115;SDS011;4593;53.652;10.168;2023-11-19T13:47:40;18.30;;;4.60;;
9115;SDS011;4593;53.652;10.168;2023-11-19T13:50:07;8.93;;;3.53;;
9115;SDS011;4593;53.652;10.168;2023-11-19T13:52:34;7.90;;;3.40;;
9115;SDS011;4593;53.652;10.168;2023-11-19T13:55:02;9.43;;;3.03;;
9115;SDS011;4593;53.652;10.168;2023-11-19T13:57:29;10.43;;;3.53;;
9115;SDS011;4593;53.652;10.168;2023-11-19T13:59:56;21.83;;;3.73;;
9115;SDS011;4593;53.652;10.168;2023-11-19T14:02:22;13.43;;;3.20;;
9115;SDS011;4593;53.652;10.168;2023-11-19T14:04:48;16.10;;;3.10;;
9115;SDS011;4593;53.652;10.168;2023-11-19T14:07:13;19.97;;;3.73;;
9115;SDS011;4593;53.652;10.168;2023-11-19T14:09:41;8.90;;;3.07;;
9115;SDS011;4593;53.652;10.168;2023-11-19T14:12:07;14.63;;;3.90;;
9115;SDS011;4593;53.652;10.168;2023-11-19T14:14:34;21.80;;;3.43;;
9115;SDS011;4593;53.652;10.168;2023-11-19T14:17:01;13.97;;;3.40;;
9115;SDS011;4593;53.652;10.168;2023-11-19T14:19:28;12.53;;;3.17;;
9115;SDS011;4593;53.652;10.168;2023-11-19T14:21:54;15.40;;;3.07;;
9115;SDS011;4593;53.652;10.168;2023-11-19T14:24:19;18.67;;;4.47;;
9115;SDS011;4593;53.652;10.168;2023-11-19T14:26:46;17.20;;;3.50;;
9115;SDS011;4593;53.652;10.168;2023-11-19T14:29:16;17.43;;;3.10;;
9115;SDS011;4593;53.652;10.168;2023-11-19T14:31:43;12.17;;;3.80;;
9115;SDS011;4593;53.652;10.168;2023-11-19T14:34:08;14.73;;;3.67;;
9115;SDS011;4593;53.652;10.168;2023-11-19T14:36:34;13.33;;;3.90;;
9115;SDS011;4593;53.652;10.168;2023-11-19T14:39:00;9.40;;;2.70;;
9115;SDS011;4593;53.652;10.168;2023-11-19T14:41:26;13.03;;;3.30;;
9115;SDS011;4593;53.652;10.168;2023-11-19T14:43:51;9.70;;;3.47;;
9115;SDS011;4593;53.652;10.168;2023-11-19T14:46:17;18.13;;;3.97;;
9115;SDS011;4593;53.652;10.168;2023-11-19T14:48:43;13.87;;;3.23;;
9115;SDS011;4593;53.652;10.168;2023-11-19T14:51:09;20.83;;;3.83;;
9115;SDS011;4593;53.652;10.168;2023-11-19T14:53:35;18.47;;;3.60;;
9115;SDS011;4593;53.652;10.168;2023-11-19T14:56:01;6.13;;;3.10;;
9115;SDS011;4593;53.652;10.168;2023-11-19T14:58:27;9.73;;;2.80;;
9115;SDS011;4593;53.652;10.168;2023-11-19T15:00:53;13.10;;;3.30;;
9115;SDS011;4593;53.652;10.168;2023-11-19T15:03:18;7.67;;;2.80;;
9115;SDS011;4593;53.652;10.168;2023-11-19T15:05:44;13.07;;;3.23;;
9115;SDS011;4593;53.652;10.168;2023-11-19T15:08:13;7.97;;;2.50;;
9115;SDS011;4593;53.652;10.168;2023-11-19T15:10:42;3.90;;;2.07;;
9115;SDS011;4593;53.652;10.168;2023-11-19T15:13:10;4.20;;;2.30;;
9115;SDS011;4593;53.652;10.168;2023-11-19T15:15:35;8.03;;;2.40;;
9115;SDS011;4593;53.652;10.168;2023-11-19T15:18:01;3.73;;;2.27;;
9115;SDS011;4593;53.652;10.168;2023-11-19T15:20:27;3.33;;;2.20;;
9115;SDS011;4593;53.652;10.168;2023-11-19T15:22:56;7.40;;;2.03;;
9115;SDS011;4593;53.652;10.168;2023-11-19T15:25:22;4.30;;;1.97;;